sensor_id;sensor_type;location;lat;lon;timestamp;P1;durP1;ratioP1;P2;durP2;ratioP2
71116;SDS011;58775;46.992;9.518;2023-02-15T00:00:29;4.53;;;1.30;;
71116;SDS011;58775;46.992;9.518;2023-02-15T00:02:29;4.63;;;1.13;;
71116;SDS011;58775;46.992;9.518;2023-02-15T00:04:30;4.85;;;1.50;;
71116;SDS011;58775;46.992;9.518;2023-02-15T00:06:46;6.05;;;1.85;;
71116;SDS011;58775;46.992;9.518;2023-02-15T00:08:48;8.27;;;2.20;;
71116;SDS011;58775;46.992;9.518;2023-02-15T00:10:49;5.65;;;1.80;;
71116;SDS011;58775;46.992;9.518;2023-02-15T00:12:50;6.82;;;2.00;;
71116;SDS011;58775;46.992;9.518;2023-02-15T00:14:51;8.23;;;2.08;;
71116;SDS011;58775;46.992;9.518;2023-02-15T00:16:52;4.10;;;1.17;;
71116;SDS011;58775;46.992;9.518;2023-02-15T00:18:55;4.78;;;1.23;;
71116;SDS011;58775;46.992;9.518;2023-02-15T00:20:56;5.18;;;1.38;;
71116;SDS011;58775;46.992;9.518;2023-02-15T00:22:57;5.05;;;1.48;;
71116;SDS011;58775;46.992;9.518;2023-02-15T00:24:58;5.33;;;1.40;;
71116;SDS011;58775;46.992;9.518;2023-02-15T00:26:59;6.10;;;1.63;;
71116;SDS011;58775;46.992;9.518;2023-02-15T00:29:00;6.97;;;1.40;;
71116;SDS011;58775;46.992;9.518;2023-02-15T00:31:05;5.13;;;1.50;;
71116;SDS011;58775;46.992;9.518;2023-02-15T00:33:10;4.22;;;1.27;;
71116;SDS011;58775;46.992;9.518;2023-02-15T00:35:11;4.28;;;1.30;;
71116;SDS011;58775;46.992;9.518;2023-02-15T00:37:12;5.50;;;1.40;;
71116;SDS011;58775;46.992;9.518;2023-02-15T00:39:14;4.03;;;1.13;;
71116;SDS011;58775;46.992;9.518;2023-02-15T00:41:17;4.60;;;1.10;;
71116;SDS011;58775;46.992;9.518;2023-02-15T00:43:19;4.10;;;1.25;;
71116;SDS011;58775;46.992;9.518;2023-02-15T00:45:22;5.03;;;0.90;;
71116;SDS011;58775;46.992;9.518;2023-02-15T00:47:22;4.73;;;1.00;;
71116;SDS011;58775;46.992;9.518;2023-02-15T00:49:25;2.00;;;0.63;;
71116;SDS011;58775;46.992;9.518;2023-02-15T00:51:27;3.30;;;0.70;;
71116;SDS011;58775;46.992;9.518;2023-02-15T00:53:29;3.95;;;0.70;;
71116;SDS011;58775;46.992;9.518;2023-02-15T00:55:30;4.32;;;0.80;;
71116;SDS011;58775;46.992;9.518;2023-02-15T00:57:31;2.63;;;0.60;;
71116;SDS011;58775;46.992;9.518;2023-02-15T00:59:32;3.80;;;0.90;;
71116;SDS011;58775;46.992;9.518;2023-02-15T01:01:33;3.38;;;0.73;;
71116;SDS011;58775;46.992;9.518;2023-02-15T01:03:34;3.85;;;0.80;;
71116;SDS011;58775;46.992;9.518;2023-02-15T01:05:36;2.75;;;0.73;;
71116;SDS011;58775;46.992;9.518;2023-02-15T01:07:38;2.92;;;0.77;;
71116;SDS011;58775;46.992;9.518;2023-02-15T01:09:39;3.88;;;0.68;;
71116;SDS011;58775;46.992;9.518;2023-02-15T01:11:39;4.57;;;0.88;;
71116;SDS011;58775;46.992;9.518;2023-02-15T01:13:41;3.20;;;0.80;;
71116;SDS011;58775;46.992;9.518;2023-02-15T01:15:42;3.13;;;0.70;;
71116;SDS011;58775;46.992;9.518;2023-02-15T01:17:44;3.22;;;0.68;;
71116;SDS011;58775;46.992;9.518;2023-02-15T01:19:51;2.90;;;0.70;;
71116;SDS011;58775;46.992;9.518;2023-02-15T01:21:53;1.97;;;0.40;;
71116;SDS011;58775;46.992;9.518;2023-02-15T01:23:53;2.22;;;0.50;;
71116;SDS011;58775;46.992;9.518;2023-02-15T01:25:54;3.50;;;0.90;;
71116;SDS011;58775;46.992;9.518;2023-02-15T01:27:55;4.83;;;1.00;;
71116;SDS011;58775;46.992;9.518;2023-02-15T01:29:56;2.90;;;0.77;;
71116;SDS011;58775;46.992;9.518;2023-02-15T01:31:57;4.03;;;1.10;;
71116;SDS011;58775;46.992;9.518;2023-02-15T01:33:58;5.37;;;0.80;;
71116;SDS011;58775;46.992;9.518;2023-02-15T01:35:59;2.65;;;0.65;;
71116;SDS011;58775;46.992;9.518;2023-02-15T01:38:00;4.45;;;1.30;;
71116;SDS011;58775;46.992;9.518;2023-02-15T01:40:01;3.63;;;0.90;;
71116;SDS011;58775;46.992;9.518;2023-02-15T01:42:03;3.40;;;0.90;;
71116;SDS011;58775;46.992;9.518;2023-02-15T01:44:40;5.35;;;1.20;;
71116;SDS011;58775;46.992;9.518;2023-02-15T01:46:45;3.33;;;0.90;;
71116;SDS011;58775;46.992;9.518;2023-02-15T01:48:57;5.35;;;0.88;;
71116;SDS011;58775;46.992;9.518;2023-02-15T01:51:02;4.90;;;0.83;;
71116;SDS011;58775;46.992;9.518;2023-02-15T01:55:08;2.17;;;0.50;;
71116;SDS011;58775;46.992;9.518;2023-02-15T01:57:11;3.10;;;0.70;;
71116;SDS011;58775;46.992;9.518;2023-02-15T01:59:17;2.17;;;0.43;;
71116;SDS011;58775;46.992;9.518;2023-02-15T02:01:23;3.03;;;0.60;;
71116;SDS011;58775;46.992;9.518;2023-02-15T02:05:49;3.65;;;0.85;;
71116;SDS011;58775;46.992;9.518;2023-02-15T02:07:51;2.63;;;0.70;;
71116;SDS011;58775;46.992;9.518;2023-02-15T02:09:55;5.07;;;1.13;;
71116;SDS011;58775;46.992;9.518;2023-02-15T02:11:57;4.93;;;1.17;;
71116;SDS011;58775;46.992;9.518;2023-02-15T02:13:59;5.60;;;1.08;;
71116;SDS011;58775;46.992;9.518;2023-02-15T02:16:01;4.40;;;1.15;;
71116;SDS011;58775;46.992;9.518;2023-02-15T02:18:49;3.40;;;0.90;;
71116;SDS011;58775;46.992;9.518;2023-02-15T02:23:31;3.10;;;0.55;;
71116;SDS011;58775;46.992;9.518;2023-02-15T02:27:57;4.28;;;0.85;;
71116;SDS011;58775;46.992;9.518;2023-02-15T02:37:08;2.80;;;0.50;;
71116;SDS011;58775;46.992;9.518;2023-02-15T02:44:18;1.70;;;0.40;;
71116;SDS011;58775;46.992;9.518;2023-02-15T02:46:26;2.00;;;0.43;;
71116;SDS011;58775;46.992;9.518;2023-02-15T02:48:32;1.73;;;0.40;;
71116;SDS011;58775;46.992;9.518;2023-02-15T02:50:34;2.90;;;0.70;;
71116;SDS011;58775;46.992;9.518;2023-02-15T02:52:41;2.30;;;0.50;;
71116;SDS011;58775;46.992;9.518;2023-02-15T02:54:42;2.03;;;0.45;;
71116;SDS011;58775;46.992;9.518;2023-02-15T02:56:44;2.08;;;0.57;;
71116;SDS011;58775;46.992;9.518;2023-02-15T02:58:51;3.07;;;0.60;;
71116;SDS011;58775;46.992;9.518;2023-02-15T03:01:15;3.80;;;0.77;;
71116;SDS011;58775;46.992;9.518;2023-02-15T03:05:35;2.92;;;0.60;;
71116;SDS011;58775;46.992;9.518;2023-02-15T03:07:41;3.80;;;0.75;;
71116;SDS011;58775;46.992;9.518;2023-02-15T03:09:45;3.17;;;0.77;;
71116;SDS011;58775;46.992;9.518;2023-02-15T03:11:49;3.90;;;0.70;;
71116;SDS011;58775;46.992;9.518;2023-02-15T03:14:02;1.77;;;0.50;;
71116;SDS011;58775;46.992;9.518;2023-02-15T03:16:11;1.85;;;0.40;;
71116;SDS011;58775;46.992;9.518;2023-02-15T03:18:31;2.28;;;0.50;;
71116;SDS011;58775;46.992;9.518;2023-02-15T03:20:43;1.73;;;0.50;;
71116;SDS011;58775;46.992;9.518;2023-02-15T03:22:56;2.38;;;0.40;;
71116;SDS011;58775;46.992;9.518;2023-02-15T03:25:14;3.00;;;0.50;;
71116;SDS011;58775;46.992;9.518;2023-02-15T03:27:41;2.63;;;0.68;;
71116;SDS011;58775;46.992;9.518;2023-02-15T03:29:57;2.40;;;0.60;;
71116;SDS011;58775;46.992;9.518;2023-02-15T03:32:05;3.20;;;0.80;;
71116;SDS011;58775;46.992;9.518;2023-02-15T03:34:15;1.85;;;0.50;;
71116;SDS011;58775;46.992;9.518;2023-02-15T03:36:27;3.28;;;0.60;;
71116;SDS011;58775;46.992;9.518;2023-02-15T03:41:19;4.13;;;0.60;;
71116;SDS011;58775;46.992;9.518;2023-02-15T03:43:27;3.47;;;0.83;;
71116;SDS011;58775;46.992;9.518;2023-02-15T03:45:35;4.60;;;0.80;;
71116;SDS011;58775;46.992;9.518;2023-02-15T03:47:42;3.40;;;0.88;;
71116;SDS011;58775;46.992;9.518;2023-02-15T03:52:30;6.00;;;0.98;;
71116;SDS011;58775;46.992;9.518;2023-02-15T03:54:35;4.60;;;0.80;;
71116;SDS011;58775;46.992;9.518;2023-02-15T03:56:43;4.38;;;1.15;;
71116;SDS011;58775;46.992;9.518;2023-02-15T03:59:04;4.35;;;0.93;;
71116;SDS011;58775;46.992;9.518;2023-02-15T04:01:34;4.35;;;0.70;;
71116;SDS011;58775;46.992;9.518;2023-02-15T04:04:16;3.47;;;0.57;;
71116;SDS011;58775;46.992;9.518;2023-02-15T04:06:19;3.27;;;0.70;;
71116;SDS011;58775;46.992;9.518;2023-02-15T04:08:20;3.45;;;0.80;;
71116;SDS011;58775;46.992;9.518;2023-02-15T04:10:41;2.70;;;0.70;;
71116;SDS011;58775;46.992;9.518;2023-02-15T04:12:57;3.95;;;0.90;;
71116;SDS011;58775;46.992;9.518;2023-02-15T04:14:58;4.40;;;1.07;;
71116;SDS011;58775;46.992;9.518;2023-02-15T04:17:18;4.63;;;0.93;;
71116;SDS011;58775;46.992;9.518;2023-02-15T04:19:19;3.40;;;0.77;;
71116;SDS011;58775;46.992;9.518;2023-02-15T04:21:38;3.63;;;0.85;;
71116;SDS011;58775;46.992;9.518;2023-02-15T04:23:58;3.33;;;1.03;;
71116;SDS011;58775;46.992;9.518;2023-02-15T04:26:29;3.60;;;0.70;;
71116;SDS011;58775;46.992;9.518;2023-02-15T04:28:30;3.53;;;0.55;;
71116;SDS011;58775;46.992;9.518;2023-02-15T04:30:34;2.58;;;0.80;;
71116;SDS011;58775;46.992;9.518;2023-02-15T04:32:39;3.13;;;0.70;;
71116;SDS011;58775;46.992;9.518;2023-02-15T04:34:41;3.83;;;0.97;;
71116;SDS011;58775;46.992;9.518;2023-02-15T04:36:45;4.10;;;1.00;;
71116;SDS011;58775;46.992;9.518;2023-02-15T04:38:48;5.53;;;1.13;;
71116;SDS011;58775;46.992;9.518;2023-02-15T04:40:50;3.30;;;0.80;;
71116;SDS011;58775;46.992;9.518;2023-02-15T04:42:52;4.33;;;0.73;;
71116;SDS011;58775;46.992;9.518;2023-02-15T04:44:53;2.95;;;0.68;;
71116;SDS011;58775;46.992;9.518;2023-02-15T04:46:54;2.75;;;0.50;;
71116;SDS011;58775;46.992;9.518;2023-02-15T04:48:55;2.58;;;0.63;;
71116;SDS011;58775;46.992;9.518;2023-02-15T04:50:56;3.00;;;0.73;;
71116;SDS011;58775;46.992;9.518;2023-02-15T04:52:57;3.42;;;0.73;;
71116;SDS011;58775;46.992;9.518;2023-02-15T04:54:58;3.17;;;0.73;;
71116;SDS011;58775;46.992;9.518;2023-02-15T04:56:59;4.13;;;0.80;;
71116;SDS011;58775;46.992;9.518;2023-02-15T04:59:00;3.75;;;0.70;;
71116;SDS011;58775;46.992;9.518;2023-02-15T05:01:01;5.03;;;0.90;;
71116;SDS011;58775;46.992;9.518;2023-02-15T05:03:02;2.27;;;0.50;;
71116;SDS011;58775;46.992;9.518;2023-02-15T05:05:03;3.65;;;0.80;;
71116;SDS011;58775;46.992;9.518;2023-02-15T05:07:04;2.30;;;0.57;;
71116;SDS011;58775;46.992;9.518;2023-02-15T05:09:05;4.43;;;1.23;;
71116;SDS011;58775;46.992;9.518;2023-02-15T05:11:06;4.20;;;1.17;;
71116;SDS011;58775;46.992;9.518;2023-02-15T05:13:07;5.25;;;1.67;;
71116;SDS011;58775;46.992;9.518;2023-02-15T05:15:08;5.68;;;1.70;;
71116;SDS011;58775;46.992;9.518;2023-02-15T05:17:09;6.40;;;2.40;;
71116;SDS011;58775;46.992;9.518;2023-02-15T05:19:10;6.15;;;1.95;;
71116;SDS011;58775;46.992;9.518;2023-02-15T05:21:11;7.07;;;2.33;;
71116;SDS011;58775;46.992;9.518;2023-02-15T05:23:13;7.25;;;1.95;;
71116;SDS011;58775;46.992;9.518;2023-02-15T05:25:15;7.00;;;2.20;;
71116;SDS011;58775;46.992;9.518;2023-02-15T05:27:34;6.78;;;2.55;;
71116;SDS011;58775;46.992;9.518;2023-02-15T05:29:54;8.55;;;2.40;;
71116;SDS011;58775;46.992;9.518;2023-02-15T05:31:55;7.63;;;2.30;;
71116;SDS011;58775;46.992;9.518;2023-02-15T05:33:56;6.40;;;1.77;;
71116;SDS011;58775;46.992;9.518;2023-02-15T05:35:58;8.25;;;2.13;;
71116;SDS011;58775;46.992;9.518;2023-02-15T05:37:59;5.55;;;1.95;;
71116;SDS011;58775;46.992;9.518;2023-02-15T05:39:59;7.03;;;2.13;;
71116;SDS011;58775;46.992;9.518;2023-02-15T05:42:00;7.43;;;2.30;;
71116;SDS011;58775;46.992;9.518;2023-02-15T05:44:01;7.45;;;2.45;;
71116;SDS011;58775;46.992;9.518;2023-02-15T05:46:02;8.13;;;3.33;;
71116;SDS011;58775;46.992;9.518;2023-02-15T05:48:03;9.87;;;3.37;;
71116;SDS011;58775;46.992;9.518;2023-02-15T05:50:04;7.22;;;2.90;;
71116;SDS011;58775;46.992;9.518;2023-02-15T05:52:06;8.15;;;2.30;;
71116;SDS011;58775;46.992;9.518;2023-02-15T05:54:08;6.82;;;2.72;;
71116;SDS011;58775;46.992;9.518;2023-02-15T05:56:09;7.87;;;3.37;;
71116;SDS011;58775;46.992;9.518;2023-02-15T05:58:11;8.27;;;2.95;;
71116;SDS011;58775;46.992;9.518;2023-02-15T06:00:12;10.80;;;4.50;;
71116;SDS011;58775;46.992;9.518;2023-02-15T06:02:14;9.37;;;3.77;;
71116;SDS011;58775;46.992;9.518;2023-02-15T06:04:15;12.57;;;4.95;;
71116;SDS011;58775;46.992;9.518;2023-02-15T06:06:16;12.55;;;5.07;;
71116;SDS011;58775;46.992;9.518;2023-02-15T06:08:17;10.60;;;4.78;;
71116;SDS011;58775;46.992;9.518;2023-02-15T06:10:21;11.67;;;4.53;;
71116;SDS011;58775;46.992;9.518;2023-02-15T06:12:23;13.95;;;5.85;;
71116;SDS011;58775;46.992;9.518;2023-02-15T06:14:25;12.30;;;5.13;;
71116;SDS011;58775;46.992;9.518;2023-02-15T06:16:26;15.38;;;5.95;;
71116;SDS011;58775;46.992;9.518;2023-02-15T06:18:28;13.75;;;5.85;;
71116;SDS011;58775;46.992;9.518;2023-02-15T06:20:29;15.13;;;6.17;;
71116;SDS011;58775;46.992;9.518;2023-02-15T06:22:31;13.75;;;5.40;;
71116;SDS011;58775;46.992;9.518;2023-02-15T06:24:32;13.75;;;5.85;;
71116;SDS011;58775;46.992;9.518;2023-02-15T06:26:33;14.73;;;5.60;;
71116;SDS011;58775;46.992;9.518;2023-02-15T06:28:34;12.20;;;4.72;;
71116;SDS011;58775;46.992;9.518;2023-02-15T06:30:35;14.98;;;6.07;;
71116;SDS011;58775;46.992;9.518;2023-02-15T06:32:37;17.10;;;6.47;;
71116;SDS011;58775;46.992;9.518;2023-02-15T06:34:38;13.37;;;5.87;;
71116;SDS011;58775;46.992;9.518;2023-02-15T06:36:39;13.10;;;6.07;;
71116;SDS011;58775;46.992;9.518;2023-02-15T06:38:40;13.10;;;5.20;;
71116;SDS011;58775;46.992;9.518;2023-02-15T06:40:41;14.30;;;6.25;;
71116;SDS011;58775;46.992;9.518;2023-02-15T06:42:42;15.00;;;6.17;;
71116;SDS011;58775;46.992;9.518;2023-02-15T06:44:43;15.80;;;6.07;;
71116;SDS011;58775;46.992;9.518;2023-02-15T06:46:45;14.20;;;6.28;;
71116;SDS011;58775;46.992;9.518;2023-02-15T06:48:46;14.70;;;5.95;;
71116;SDS011;58775;46.992;9.518;2023-02-15T06:50:47;15.57;;;6.43;;
71116;SDS011;58775;46.992;9.518;2023-02-15T06:52:49;12.68;;;5.25;;
71116;SDS011;58775;46.992;9.518;2023-02-15T06:54:56;16.65;;;6.60;;
71116;SDS011;58775;46.992;9.518;2023-02-15T06:56:57;17.13;;;6.32;;
71116;SDS011;58775;46.992;9.518;2023-02-15T06:58:58;20.13;;;6.30;;
71116;SDS011;58775;46.992;9.518;2023-02-15T07:00:59;15.00;;;6.73;;
71116;SDS011;58775;46.992;9.518;2023-02-15T07:03:00;15.02;;;5.75;;
71116;SDS011;58775;46.992;9.518;2023-02-15T07:05:04;15.35;;;5.95;;
71116;SDS011;58775;46.992;9.518;2023-02-15T07:07:08;18.70;;;6.25;;
71116;SDS011;58775;46.992;9.518;2023-02-15T07:09:10;16.03;;;6.37;;
71116;SDS011;58775;46.992;9.518;2023-02-15T07:11:13;15.38;;;6.57;;
71116;SDS011;58775;46.992;9.518;2023-02-15T07:13:32;14.57;;;6.50;;
71116;SDS011;58775;46.992;9.518;2023-02-15T07:15:33;14.65;;;6.65;;
71116;SDS011;58775;46.992;9.518;2023-02-15T07:17:35;15.87;;;7.13;;
71116;SDS011;58775;46.992;9.518;2023-02-15T07:19:36;13.30;;;6.28;;
71116;SDS011;58775;46.992;9.518;2023-02-15T07:21:37;18.30;;;7.13;;
71116;SDS011;58775;46.992;9.518;2023-02-15T07:23:38;17.88;;;6.90;;
71116;SDS011;58775;46.992;9.518;2023-02-15T07:25:40;15.07;;;7.17;;
71116;SDS011;58775;46.992;9.518;2023-02-15T07:27:41;15.93;;;7.10;;
71116;SDS011;58775;46.992;9.518;2023-02-15T07:29:43;15.07;;;6.40;;
71116;SDS011;58775;46.992;9.518;2023-02-15T07:31:44;14.93;;;6.90;;
71116;SDS011;58775;46.992;9.518;2023-02-15T07:33:45;15.60;;;6.60;;
71116;SDS011;58775;46.992;9.518;2023-02-15T07:35:51;14.18;;;5.78;;
71116;SDS011;58775;46.992;9.518;2023-02-15T07:37:54;11.30;;;4.85;;
71116;SDS011;58775;46.992;9.518;2023-02-15T07:39:55;16.90;;;6.22;;
71116;SDS011;58775;46.992;9.518;2023-02-15T07:41:56;12.55;;;5.15;;
71116;SDS011;58775;46.992;9.518;2023-02-15T07:44:04;12.65;;;5.65;;
71116;SDS011;58775;46.992;9.518;2023-02-15T07:46:06;13.18;;;5.68;;
71116;SDS011;58775;46.992;9.518;2023-02-15T07:48:09;11.82;;;5.05;;
71116;SDS011;58775;46.992;9.518;2023-02-15T07:50:10;10.75;;;4.90;;
71116;SDS011;58775;46.992;9.518;2023-02-15T07:52:10;11.93;;;5.50;;
71116;SDS011;58775;46.992;9.518;2023-02-15T07:54:11;11.13;;;4.38;;
71116;SDS011;58775;46.992;9.518;2023-02-15T07:56:13;10.20;;;4.23;;
71116;SDS011;58775;46.992;9.518;2023-02-15T07:58:15;8.23;;;3.17;;
71116;SDS011;58775;46.992;9.518;2023-02-15T08:00:18;6.32;;;2.30;;
71116;SDS011;58775;46.992;9.518;2023-02-15T08:02:23;11.02;;;3.33;;
71116;SDS011;58775;46.992;9.518;2023-02-15T08:04:24;9.15;;;3.55;;
71116;SDS011;58775;46.992;9.518;2023-02-15T08:06:28;9.30;;;3.07;;
71116;SDS011;58775;46.992;9.518;2023-02-15T08:08:32;9.98;;;3.60;;
71116;SDS011;58775;46.992;9.518;2023-02-15T08:10:35;7.85;;;3.50;;
71116;SDS011;58775;46.992;9.518;2023-02-15T08:12:55;6.78;;;2.38;;
71116;SDS011;58775;46.992;9.518;2023-02-15T08:14:55;8.17;;;2.80;;
71116;SDS011;58775;46.992;9.518;2023-02-15T08:16:58;5.72;;;2.03;;
71116;SDS011;58775;46.992;9.518;2023-02-15T08:19:09;6.70;;;2.05;;
71116;SDS011;58775;46.992;9.518;2023-02-15T08:21:11;6.38;;;1.98;;
71116;SDS011;58775;46.992;9.518;2023-02-15T08:23:11;4.97;;;1.60;;
71116;SDS011;58775;46.992;9.518;2023-02-15T08:25:12;4.82;;;1.55;;
71116;SDS011;58775;46.992;9.518;2023-02-15T08:27:13;4.47;;;1.42;;
71116;SDS011;58775;46.992;9.518;2023-02-15T08:29:15;3.57;;;1.20;;
71116;SDS011;58775;46.992;9.518;2023-02-15T08:31:17;4.18;;;1.20;;
71116;SDS011;58775;46.992;9.518;2023-02-15T08:33:19;4.18;;;1.23;;
71116;SDS011;58775;46.992;9.518;2023-02-15T08:35:20;5.30;;;1.45;;
71116;SDS011;58775;46.992;9.518;2023-02-15T08:37:21;4.97;;;1.47;;
71116;SDS011;58775;46.992;9.518;2023-02-15T08:39:22;5.53;;;1.42;;
71116;SDS011;58775;46.992;9.518;2023-02-15T08:41:24;4.50;;;1.23;;
71116;SDS011;58775;46.992;9.518;2023-02-15T08:43:30;4.43;;;1.40;;
71116;SDS011;58775;46.992;9.518;2023-02-15T08:45:31;5.10;;;1.57;;
71116;SDS011;58775;46.992;9.518;2023-02-15T08:47:32;4.15;;;1.20;;
71116;SDS011;58775;46.992;9.518;2023-02-15T08:49:33;5.55;;;1.40;;
71116;SDS011;58775;46.992;9.518;2023-02-15T08:51:35;5.18;;;1.25;;
71116;SDS011;58775;46.992;9.518;2023-02-15T08:53:38;5.70;;;1.17;;
71116;SDS011;58775;46.992;9.518;2023-02-15T08:55:40;7.80;;;1.50;;
71116;SDS011;58775;46.992;9.518;2023-02-15T08:57:42;6.00;;;1.70;;
71116;SDS011;58775;46.992;9.518;2023-02-15T08:59:46;5.97;;;1.88;;
71116;SDS011;58775;46.992;9.518;2023-02-15T09:01:47;7.78;;;1.35;;
71116;SDS011;58775;46.992;9.518;2023-02-15T09:03:51;5.67;;;1.40;;
71116;SDS011;58775;46.992;9.518;2023-02-15T09:05:59;8.25;;;1.55;;
71116;SDS011;58775;46.992;9.518;2023-02-15T09:08:01;5.45;;;1.50;;
71116;SDS011;58775;46.992;9.518;2023-02-15T09:10:03;7.30;;;1.95;;
71116;SDS011;58775;46.992;9.518;2023-02-15T09:12:05;6.95;;;1.58;;
71116;SDS011;58775;46.992;9.518;2023-02-15T09:14:10;7.13;;;1.80;;
71116;SDS011;58775;46.992;9.518;2023-02-15T09:16:15;7.53;;;2.00;;
71116;SDS011;58775;46.992;9.518;2023-02-15T09:18:19;5.65;;;2.05;;
71116;SDS011;58775;46.992;9.518;2023-02-15T09:20:21;7.55;;;1.60;;
71116;SDS011;58775;46.992;9.518;2023-02-15T09:22:23;4.78;;;1.38;;
71116;SDS011;58775;46.992;9.518;2023-02-15T09:24:24;5.47;;;1.60;;
71116;SDS011;58775;46.992;9.518;2023-02-15T09:26:25;6.72;;;1.45;;
71116;SDS011;58775;46.992;9.518;2023-02-15T09:28:28;5.40;;;1.50;;
71116;SDS011;58775;46.992;9.518;2023-02-15T09:30:29;5.43;;;1.70;;
71116;SDS011;58775;46.992;9.518;2023-02-15T09:32:30;5.68;;;1.52;;
71116;SDS011;58775;46.992;9.518;2023-02-15T09:34:31;7.55;;;1.50;;
71116;SDS011;58775;46.992;9.518;2023-02-15T09:36:33;5.30;;;1.80;;
71116;SDS011;58775;46.992;9.518;2023-02-15T09:38:35;5.10;;;2.00;;
71116;SDS011;58775;46.992;9.518;2023-02-15T09:40:38;7.32;;;1.80;;
71116;SDS011;58775;46.992;9.518;2023-02-15T09:49:48;6.40;;;1.70;;
71116;SDS011;58775;46.992;9.518;2023-02-15T09:59:10;6.90;;;2.65;;
71116;SDS011;58775;46.992;9.518;2023-02-15T10:01:29;5.97;;;1.87;;
71116;SDS011;58775;46.992;9.518;2023-02-15T10:05:50;7.90;;;1.90;;
71116;SDS011;58775;46.992;9.518;2023-02-15T10:24:50;3.90;;;1.30;;
71116;SDS011;58775;46.992;9.518;2023-02-15T10:27:13;7.00;;;1.30;;
71116;SDS011;58775;46.992;9.518;2023-02-15T10:29:27;5.40;;;1.65;;
71116;SDS011;58775;46.992;9.518;2023-02-15T10:31:43;6.32;;;1.90;;
71116;SDS011;58775;46.992;9.518;2023-02-15T10:34:01;10.02;;;1.73;;
71116;SDS011;58775;46.992;9.518;2023-02-15T10:36:24;4.27;;;1.43;;
71116;SDS011;58775;46.992;9.518;2023-02-15T10:38:42;4.60;;;1.30;;
71116;SDS011;58775;46.992;9.518;2023-02-15T10:41:02;5.57;;;1.90;;
71116;SDS011;58775;46.992;9.518;2023-02-15T10:59:29;5.33;;;1.20;;
71116;SDS011;58775;46.992;9.518;2023-02-15T11:08:07;6.93;;;2.80;;
71116;SDS011;58775;46.992;9.518;2023-02-15T11:12:16;5.75;;;2.08;;
71116;SDS011;58775;46.992;9.518;2023-02-15T11:16:33;5.47;;;2.45;;
71116;SDS011;58775;46.992;9.518;2023-02-15T11:23:16;5.05;;;1.05;;
71116;SDS011;58775;46.992;9.518;2023-02-15T11:25:28;5.10;;;1.13;;
71116;SDS011;58775;46.992;9.518;2023-02-15T11:27:32;3.25;;;1.23;;
71116;SDS011;58775;46.992;9.518;2023-02-15T11:29:41;3.80;;;0.90;;
71116;SDS011;58775;46.992;9.518;2023-02-15T11:31:55;3.00;;;1.03;;
71116;SDS011;58775;46.992;9.518;2023-02-15T11:34:00;2.53;;;0.73;;
71116;SDS011;58775;46.992;9.518;2023-02-15T11:36:08;2.33;;;1.00;;
71116;SDS011;58775;46.992;9.518;2023-02-15T11:40:25;3.10;;;1.08;;
71116;SDS011;58775;46.992;9.518;2023-02-15T11:42:28;5.43;;;2.03;;
71116;SDS011;58775;46.992;9.518;2023-02-15T11:44:35;4.20;;;1.00;;
71116;SDS011;58775;46.992;9.518;2023-02-15T11:46:42;2.28;;;0.80;;
71116;SDS011;58775;46.992;9.518;2023-02-15T11:48:43;4.72;;;0.90;;
71116;SDS011;58775;46.992;9.518;2023-02-15T11:50:45;2.72;;;0.90;;
71116;SDS011;58775;46.992;9.518;2023-02-15T11:52:46;4.07;;;0.97;;
71116;SDS011;58775;46.992;9.518;2023-02-15T11:54:48;2.45;;;0.80;;
71116;SDS011;58775;46.992;9.518;2023-02-15T11:56:50;4.75;;;1.00;;
71116;SDS011;58775;46.992;9.518;2023-02-15T11:58:53;4.70;;;1.00;;
71116;SDS011;58775;46.992;9.518;2023-02-15T12:01:02;3.40;;;1.23;;
71116;SDS011;58775;46.992;9.518;2023-02-15T12:03:24;8.82;;;4.40;;
71116;SDS011;58775;46.992;9.518;2023-02-15T12:05:45;7.22;;;2.90;;
71116;SDS011;58775;46.992;9.518;2023-02-15T12:12:24;3.50;;;1.25;;
71116;SDS011;58775;46.992;9.518;2023-02-15T12:14:52;7.45;;;3.53;;
71116;SDS011;58775;46.992;9.518;2023-02-15T12:16:57;4.28;;;1.45;;
71116;SDS011;58775;46.992;9.518;2023-02-15T12:19:00;3.70;;;1.48;;
71116;SDS011;58775;46.992;9.518;2023-02-15T12:21:44;4.55;;;1.30;;
71116;SDS011;58775;46.992;9.518;2023-02-15T12:23:34;3.67;;;0.80;;
71116;SDS011;58775;46.992;9.518;2023-02-15T12:25:55;5.20;;;0.80;;
71116;SDS011;58775;46.992;9.518;2023-02-15T12:27:58;4.05;;;0.80;;
71116;SDS011;58775;46.992;9.518;2023-02-15T12:32:23;5.32;;;0.82;;
71116;SDS011;58775;46.992;9.518;2023-02-15T12:34:38;1.13;;;0.60;;
71116;SDS011;58775;46.992;9.518;2023-02-15T12:36:42;1.85;;;0.75;;
71116;SDS011;58775;46.992;9.518;2023-02-15T12:39:02;2.40;;;0.75;;
71116;SDS011;58775;46.992;9.518;2023-02-15T12:41:23;2.35;;;0.75;;
71116;SDS011;58775;46.992;9.518;2023-02-15T12:43:29;2.50;;;0.70;;
71116;SDS011;58775;46.992;9.518;2023-02-15T12:45:32;3.90;;;0.70;;
71116;SDS011;58775;46.992;9.518;2023-02-15T12:47:34;4.70;;;0.90;;
71116;SDS011;58775;46.992;9.518;2023-02-15T12:49:36;1.90;;;0.80;;
71116;SDS011;58775;46.992;9.518;2023-02-15T12:51:44;6.13;;;0.90;;
71116;SDS011;58775;46.992;9.518;2023-02-15T12:53:47;4.30;;;1.13;;
71116;SDS011;58775;46.992;9.518;2023-02-15T12:55:50;2.83;;;0.90;;
71116;SDS011;58775;46.992;9.518;2023-02-15T12:58:08;3.60;;;0.90;;
71116;SDS011;58775;46.992;9.518;2023-02-15T13:02:22;3.33;;;0.80;;
71116;SDS011;58775;46.992;9.518;2023-02-15T13:04:26;3.25;;;0.70;;
71116;SDS011;58775;46.992;9.518;2023-02-15T13:06:33;1.87;;;0.63;;
71116;SDS011;58775;46.992;9.518;2023-02-15T13:08:49;2.20;;;0.60;;
71116;SDS011;58775;46.992;9.518;2023-02-15T13:10:56;3.65;;;0.60;;
71116;SDS011;58775;46.992;9.518;2023-02-15T13:13:14;2.20;;;0.52;;
71116;SDS011;58775;46.992;9.518;2023-02-15T13:15:34;3.13;;;0.70;;
71116;SDS011;58775;46.992;9.518;2023-02-15T13:17:37;2.07;;;0.50;;
71116;SDS011;58775;46.992;9.518;2023-02-15T13:19:44;2.13;;;0.55;;
71116;SDS011;58775;46.992;9.518;2023-02-15T13:21:51;4.15;;;0.70;;
71116;SDS011;58775;46.992;9.518;2023-02-15T13:24:05;2.95;;;0.60;;
71116;SDS011;58775;46.992;9.518;2023-02-15T13:26:18;2.63;;;0.60;;
71116;SDS011;58775;46.992;9.518;2023-02-15T13:28:23;2.90;;;0.70;;
71116;SDS011;58775;46.992;9.518;2023-02-15T13:30:36;4.15;;;0.80;;
71116;SDS011;58775;46.992;9.518;2023-02-15T13:32:42;2.72;;;0.68;;
71116;SDS011;58775;46.992;9.518;2023-02-15T13:34:43;3.08;;;0.60;;
71116;SDS011;58775;46.992;9.518;2023-02-15T13:37:01;2.50;;;0.77;;
71116;SDS011;58775;46.992;9.518;2023-02-15T13:39:22;1.95;;;0.50;;
71116;SDS011;58775;46.992;9.518;2023-02-15T13:41:46;3.28;;;0.75;;
71116;SDS011;58775;46.992;9.518;2023-02-15T13:44:03;3.00;;;0.80;;
71116;SDS011;58775;46.992;9.518;2023-02-15T13:46:39;2.78;;;0.70;;
71116;SDS011;58775;46.992;9.518;2023-02-15T13:51:25;4.20;;;1.38;;
71116;SDS011;58775;46.992;9.518;2023-02-15T13:56:12;7.82;;;2.10;;
71116;SDS011;58775;46.992;9.518;2023-02-15T14:00:47;6.33;;;2.57;;
71116;SDS011;58775;46.992;9.518;2023-02-15T14:03:11;8.52;;;2.60;;
71116;SDS011;58775;46.992;9.518;2023-02-15T14:17:42;5.18;;;1.15;;
71116;SDS011;58775;46.992;9.518;2023-02-15T14:20:07;4.10;;;1.40;;
71116;SDS011;58775;46.992;9.518;2023-02-15T14:22:25;5.80;;;1.35;;
71116;SDS011;58775;46.992;9.518;2023-02-15T14:27:12;4.00;;;1.13;;
71116;SDS011;58775;46.992;9.518;2023-02-15T14:31:42;4.90;;;1.67;;
71116;SDS011;58775;46.992;9.518;2023-02-15T14:33:51;5.53;;;1.40;;
71116;SDS011;58775;46.992;9.518;2023-02-15T14:35:55;4.27;;;1.33;;
71116;SDS011;58775;46.992;9.518;2023-02-15T14:40:33;6.25;;;1.30;;
71116;SDS011;58775;46.992;9.518;2023-02-15T14:43:04;7.25;;;1.77;;
71116;SDS011;58775;46.992;9.518;2023-02-15T14:47:19;5.17;;;1.77;;
71116;SDS011;58775;46.992;9.518;2023-02-15T14:49:26;6.80;;;2.28;;
71116;SDS011;58775;46.992;9.518;2023-02-15T14:53:40;9.82;;;3.72;;